Bellmunt (Osona)





Hora UTC 03:10
Temperatura 1.1 ºC
Humitat 84.0 %
Pressió 1023.3 hPa
Pluja 0.0 mm
Velocitat vent 16.1 km/h
Direcció vent NNW

Dades diàries 2023-02-06



Hora UTC (hivern +1h; estiu +2h)
Temperatura (ºC) Humitat (%) Pressió (hPa) Velocitat vent (km/h) Precipitació (mm)
Hora UTC Aire Humitat Pressió Vel. Dir. Vel. Max Dir. Intent. màx 5 min.
00:05 1.8 79.0 1023.8 1.6 SW 1.6 0.0
00:10 1.7 80.0 1023.8 1.6 SSE 4.8 0.0
00:15 1.6 81.0 1023.9 9.7 S 11.3 0.0
00:20 1.6 82.0 1023.7 8.0 S 12.9 0.0
00:25 1.6 82.0 1023.6 6.4 SSE 14.5 0.0
00:30 1.5 82.0 1023.5 9.7 S 16.1 0.0
00:35 1.4 83.0 1023.5 8.0 SSW 16.1 0.0
00:40 1.4 83.0 1023.4 8.0 SSW 11.3 0.0
00:45 1.4 84.0 1023.2 8.0 SW 11.3 0.0
00:50 1.4 83.0 1023.4 4.8 SW 11.3 0.0
00:55 1.4 83.0 1023.3 6.4 SSE 11.3 0.0
01:00 1.3 84.0 1023.2 6.4 SSW 11.3 0.0
01:05 1.2 83.0 1023.2 3.2 W 11.3 0.0
01:10 1.1 83.0 1023.0 11.3 W 14.5 0.0
01:15 1.0 84.0 1023.0 11.3 WSW 14.5 0.0
01:20 1.1 84.0 1022.9 11.3 SSW 12.9 0.0
01:25 1.0 84.0 1022.9 9.7 SSW 12.9 0.0
01:30 0.8 83.0 1022.9 4.8 W 12.9 0.0
01:35 0.8 84.0 1022.9 3.2 W 6.4 0.0
01:40 0.8 86.0 1023.0 0.0 WSW 4.8 0.0
01:45 0.9 86.0 1023.2 0.0 SE 3.2 0.0
01:50 0.9 86.0 1023.4 1.6 SE 3.2 0.0
01:55 0.9 86.0 1023.2 4.8 ENE 6.4 0.0
02:00 0.9 86.0 1023.3 6.4 ENE 8.0 0.0
02:05 1.0 87.0 1023.4 4.8 N 8.0 0.0
02:10 1.2 86.0 1023.4 3.2 N 8.0 0.0
02:15 1.2 86.0 1023.5 9.7 NNE 9.7 0.0
02:20 0.9 84.0 1023.6 16.1 NE 19.3 0.0
02:25 1.1 84.0 1023.5 16.1 NNE 19.3 0.0
02:30 1.1 85.0 1023.5 9.7 N 19.3 0.0
02:35 1.1 83.0 1023.6 9.7 NNE 16.1 0.0
02:40 0.8 84.0 1023.5 9.7 N 16.1 0.0
02:45 1.1 83.0 1023.4 14.5 NNW 16.1 0.0
02:50 1.1 84.0 1023.3 12.9 NNW 16.1 0.0
02:55 0.9 83.0 1023.2 14.5 N 16.1 0.0
03:00 1.1 84.0 1023.2 12.9 NW 16.1 0.0
03:05 0.9 84.0 1023.3 9.7 NNW 16.1 0.0
03:10 1.1 84.0 1023.3 16.1 NNW 16.1 0.0
Màxima 1.8 87.0 1023.9 16.1 NNW 19.3 0.0
Mínima 0.7 79.0 1022.9
Total 0.0